sensor_id;sensor_type;location;lat;lon;timestamp;pressure;altitude;pressure_sealevel;temperature;humidity
4199;BME280;2113;50.946;14.610;2023-04-26T00:00:00;96603.78;;;1.83;78.84
4199;BME280;2113;50.946;14.610;2023-04-26T00:02:32;96600.00;;;1.89;78.07
4199;BME280;2113;50.946;14.610;2023-04-26T00:05:00;96612.88;;;1.89;79.51
4199;BME280;2113;50.946;14.610;2023-04-26T00:07:30;96611.59;;;1.82;79.18
4199;BME280;2113;50.946;14.610;2023-04-26T00:09:58;96608.69;;;1.73;80.20
4199;BME280;2113;50.946;14.610;2023-04-26T00:12:27;96605.03;;;1.77;79.89
4199;BME280;2113;50.946;14.610;2023-04-26T00:14:56;96604.19;;;1.77;79.71
4199;BME280;2113;50.946;14.610;2023-04-26T00:17:24;96610.88;;;1.79;78.93
4199;BME280;2113;50.946;14.610;2023-04-26T00:19:52;96611.59;;;1.82;79.28
4199;BME280;2113;50.946;14.610;2023-04-26T00:22:23;96607.38;;;1.81;79.30
4199;BME280;2113;50.946;14.610;2023-04-26T00:24:51;96617.88;;;1.77;79.69
4199;BME280;2113;50.946;14.610;2023-04-26T00:27:19;96615.69;;;1.71;79.84
4199;BME280;2113;50.946;14.610;2023-04-26T00:29:48;96615.03;;;1.68;80.34
4199;BME280;2113;50.946;14.610;2023-04-26T00:32:17;96612.78;;;1.63;80.89
4199;BME280;2113;50.946;14.610;2023-04-26T00:34:45;96617.28;;;1.60;80.64
4199;BME280;2113;50.946;14.610;2023-04-26T00:37:16;96616.72;;;1.55;81.61
4199;BME280;2113;50.946;14.610;2023-04-26T00:39:44;96618.38;;;1.56;80.68
4199;BME280;2113;50.946;14.610;2023-04-26T00:42:13;96619.59;;;1.50;81.56
4199;BME280;2113;50.946;14.610;2023-04-26T00:44:41;96617.66;;;1.54;80.57
4199;BME280;2113;50.946;14.610;2023-04-26T00:47:10;96625.13;;;1.44;81.76
4199;BME280;2113;50.946;14.610;2023-04-26T00:49:40;96620.06;;;1.42;81.53
4199;BME280;2113;50.946;14.610;2023-04-26T00:52:08;96622.72;;;1.41;81.48
4199;BME280;2113;50.946;14.610;2023-04-26T00:54:37;96624.19;;;1.45;81.49
4199;BME280;2113;50.946;14.610;2023-04-26T00:57:06;96623.94;;;1.50;81.56
4199;BME280;2113;50.946;14.610;2023-04-26T00:59:35;96624.34;;;1.56;81.37
4199;BME280;2113;50.946;14.610;2023-04-26T01:02:04;96623.16;;;1.62;81.39
4199;BME280;2113;50.946;14.610;2023-04-26T01:04:32;96631.50;;;1.65;81.43
4199;BME280;2113;50.946;14.610;2023-04-26T01:07:02;96624.59;;;1.66;80.98
4199;BME280;2113;50.946;14.610;2023-04-26T01:09:32;96628.00;;;1.66;81.27
4199;BME280;2113;50.946;14.610;2023-04-26T01:12:01;96622.94;;;1.65;81.57
4199;BME280;2113;50.946;14.610;2023-04-26T01:14:30;96629.47;;;1.70;81.09
4199;BME280;2113;50.946;14.610;2023-04-26T01:16:59;96629.72;;;1.80;80.60
4199;BME280;2113;50.946;14.610;2023-04-26T01:19:27;96644.16;;;1.83;80.27
4199;BME280;2113;50.946;14.610;2023-04-26T01:21:55;96641.47;;;1.84;79.54
4199;BME280;2113;50.946;14.610;2023-04-26T01:24:25;96633.84;;;1.83;80.41
4199;BME280;2113;50.946;14.610;2023-04-26T01:26:55;96638.28;;;1.81;80.52
4199;BME280;2113;50.946;14.610;2023-04-26T01:29:24;96637.66;;;1.77;79.93
4199;BME280;2113;50.946;14.610;2023-04-26T01:31:52;96632.69;;;1.74;80.12
4199;BME280;2113;50.946;14.610;2023-04-26T01:34:21;96632.22;;;1.67;79.85
4199;BME280;2113;50.946;14.610;2023-04-26T01:36:49;96635.38;;;1.58;80.45
4199;BME280;2113;50.946;14.610;2023-04-26T01:39:19;96637.81;;;1.47;80.64
4199;BME280;2113;50.946;14.610;2023-04-26T01:41:50;96649.47;;;1.38;80.80
4199;BME280;2113;50.946;14.610;2023-04-26T01:44:18;96652.69;;;1.28;81.37
4199;BME280;2113;50.946;14.610;2023-04-26T01:46:46;96648.94;;;1.19;81.13
4199;BME280;2113;50.946;14.610;2023-04-26T01:49:15;96647.84;;;1.09;81.73
4199;BME280;2113;50.946;14.610;2023-04-26T01:51:43;96656.00;;;1.01;82.09
4199;BME280;2113;50.946;14.610;2023-04-26T01:54:11;96656.16;;;0.84;82.95
4199;BME280;2113;50.946;14.610;2023-04-26T01:56:39;96657.06;;;0.83;82.51
4199;BME280;2113;50.946;14.610;2023-04-26T01:59:09;96657.78;;;0.71;83.68
4199;BME280;2113;50.946;14.610;2023-04-26T02:01:37;96659.31;;;0.59;84.18
4199;BME280;2113;50.946;14.610;2023-04-26T02:04:05;96666.00;;;0.48;84.91
4199;BME280;2113;50.946;14.610;2023-04-26T02:06:33;96662.34;;;0.52;84.37
4199;BME280;2113;50.946;14.610;2023-04-26T02:09:02;96662.44;;;0.50;84.30
4199;BME280;2113;50.946;14.610;2023-04-26T02:11:30;96665.91;;;0.49;84.23
4199;BME280;2113;50.946;14.610;2023-04-26T02:13:58;96665.88;;;0.35;85.02
4199;BME280;2113;50.946;14.610;2023-04-26T02:16:28;96667.22;;;0.26;85.23
4199;BME280;2113;50.946;14.610;2023-04-26T02:18:56;96667.88;;;0.14;85.86
4199;BME280;2113;50.946;14.610;2023-04-26T02:21:25;96662.38;;;0.06;86.32
4199;BME280;2113;50.946;14.610;2023-04-26T02:23:54;96659.84;;;0.20;85.72
4199;BME280;2113;50.946;14.610;2023-04-26T02:26:22;96656.50;;;0.34;85.64
4199;BME280;2113;50.946;14.610;2023-04-26T02:28:50;96659.06;;;0.34;86.00
4199;BME280;2113;50.946;14.610;2023-04-26T02:31:19;96661.41;;;0.39;86.67
4199;BME280;2113;50.946;14.610;2023-04-26T02:33:50;96662.06;;;0.56;86.20
4199;BME280;2113;50.946;14.610;2023-04-26T02:36:18;96657.59;;;0.60;86.18
4199;BME280;2113;50.946;14.610;2023-04-26T02:38:47;96659.25;;;0.61;86.36
4199;BME280;2113;50.946;14.610;2023-04-26T02:41:15;96652.06;;;0.52;86.28
4199;BME280;2113;50.946;14.610;2023-04-26T02:43:43;96659.75;;;0.38;86.83
4199;BME280;2113;50.946;14.610;2023-04-26T02:46:12;96650.88;;;0.27;87.43
4199;BME280;2113;50.946;14.610;2023-04-26T02:48:43;96654.63;;;0.22;87.84
4199;BME280;2113;50.946;14.610;2023-04-26T02:51:13;96653.97;;;0.18;88.05
4199;BME280;2113;50.946;14.610;2023-04-26T02:53:41;96651.25;;;0.21;88.20
4199;BME280;2113;50.946;14.610;2023-04-26T02:56:09;96659.47;;;0.12;88.32
4199;BME280;2113;50.946;14.610;2023-04-26T02:58:38;96657.97;;;0.08;88.77
4199;BME280;2113;50.946;14.610;2023-04-26T03:01:06;96660.94;;;0.00;89.34
4199;BME280;2113;50.946;14.610;2023-04-26T03:03:34;96660.16;;;0.00;89.75
4199;BME280;2113;50.946;14.610;2023-04-26T03:06:04;96657.91;;;0.10;89.79
4199;BME280;2113;50.946;14.610;2023-04-26T03:08:34;96663.41;;;0.18;90.11
4199;BME280;2113;50.946;14.610;2023-04-26T03:11:02;96659.69;;;0.23;90.03
4199;BME280;2113;50.946;14.610;2023-04-26T03:13:31;96657.22;;;0.22;90.32
4199;BME280;2113;50.946;14.610;2023-04-26T03:15:59;96658.59;;;0.27;89.87
4199;BME280;2113;50.946;14.610;2023-04-26T03:18:27;96662.19;;;0.25;89.99
4199;BME280;2113;50.946;14.610;2023-04-26T03:20:55;96662.63;;;0.31;89.57
4199;BME280;2113;50.946;14.610;2023-04-26T03:23:24;96662.47;;;0.34;89.38
4199;BME280;2113;50.946;14.610;2023-04-26T03:25:54;96673.81;;;0.30;89.62
4199;BME280;2113;50.946;14.610;2023-04-26T03:28:22;96662.22;;;0.39;89.31
4199;BME280;2113;50.946;14.610;2023-04-26T03:30:51;96665.63;;;0.40;88.86
4199;BME280;2113;50.946;14.610;2023-04-26T03:33:19;96673.56;;;0.35;89.29
4199;BME280;2113;50.946;14.610;2023-04-26T03:35:47;96669.28;;;0.35;89.30
4199;BME280;2113;50.946;14.610;2023-04-26T03:38:15;96666.69;;;0.35;89.26
4199;BME280;2113;50.946;14.610;2023-04-26T03:40:44;96666.03;;;0.32;89.44
4199;BME280;2113;50.946;14.610;2023-04-26T03:43:14;96672.38;;;0.26;89.78
4199;BME280;2113;50.946;14.610;2023-04-26T03:45:45;96673.00;;;0.30;89.19
4199;BME280;2113;50.946;14.610;2023-04-26T03:48:15;96671.34;;;0.29;89.19
4199;BME280;2113;50.946;14.610;2023-04-26T03:50:44;96675.84;;;0.25;89.48
4199;BME280;2113;50.946;14.610;2023-04-26T03:53:12;96679.25;;;0.26;89.20
4199;BME280;2113;50.946;14.610;2023-04-26T03:55:41;96684.38;;;0.26;89.66
4199;BME280;2113;50.946;14.610;2023-04-26T03:58:09;96685.75;;;0.31;89.64
4199;BME280;2113;50.946;14.610;2023-04-26T04:00:39;96680.75;;;0.44;89.37
4199;BME280;2113;50.946;14.610;2023-04-26T04:03:08;96676.56;;;0.57;88.51
4199;BME280;2113;50.946;14.610;2023-04-26T04:05:37;96679.53;;;0.65;88.65
4199;BME280;2113;50.946;14.610;2023-04-26T04:08:05;96677.06;;;0.64;88.30
4199;BME280;2113;50.946;14.610;2023-04-26T04:10:34;96688.41;;;0.60;88.06
4199;BME280;2113;50.946;14.610;2023-04-26T04:13:03;96684.03;;;0.62;88.41
4199;BME280;2113;50.946;14.610;2023-04-26T04:15:32;96689.63;;;0.68;88.84
4199;BME280;2113;50.946;14.610;2023-04-26T04:18:02;96692.78;;;0.74;88.20
4199;BME280;2113;50.946;14.610;2023-04-26T04:20:30;96694.78;;;0.83;87.91
4199;BME280;2113;50.946;14.610;2023-04-26T04:22:59;96701.34;;;0.88;88.62
4199;BME280;2113;50.946;14.610;2023-04-26T04:25:30;96688.84;;;0.96;88.75
4199;BME280;2113;50.946;14.610;2023-04-26T04:28:02;96696.09;;;0.90;88.66
4199;BME280;2113;50.946;14.610;2023-04-26T04:30:31;96696.75;;;0.79;88.33
4199;BME280;2113;50.946;14.610;2023-04-26T04:33:02;96693.34;;;0.79;87.88
4199;BME280;2113;50.946;14.610;2023-04-26T04:35:32;96697.16;;;0.71;87.71
4199;BME280;2113;50.946;14.610;2023-04-26T04:38:03;96701.09;;;0.63;87.86
4199;BME280;2113;50.946;14.610;2023-04-26T04:40:31;96710.63;;;0.61;87.79
4199;BME280;2113;50.946;14.610;2023-04-26T04:43:00;96711.50;;;0.76;87.58
4199;BME280;2113;50.946;14.610;2023-04-26T04:45:30;96711.72;;;1.01;87.27
4199;BME280;2113;50.946;14.610;2023-04-26T04:47:59;96708.72;;;1.09;86.41
4199;BME280;2113;50.946;14.610;2023-04-26T04:50:29;96719.28;;;1.18;86.73
4199;BME280;2113;50.946;14.610;2023-04-26T04:52:58;96718.38;;;1.19;85.96
4199;BME280;2113;50.946;14.610;2023-04-26T04:55:27;96713.22;;;1.19;85.67
4199;BME280;2113;50.946;14.610;2023-04-26T04:57:56;96724.06;;;1.24;86.10
4199;BME280;2113;50.946;14.610;2023-04-26T05:00:24;96723.97;;;1.26;85.40
4199;BME280;2113;50.946;14.610;2023-04-26T05:03:02;96732.44;;;1.28;85.54
4199;BME280;2113;50.946;14.610;2023-04-26T05:05:33;96728.56;;;1.21;85.09
4199;BME280;2113;50.946;14.610;2023-04-26T05:08:02;96734.81;;;1.31;85.53
4199;BME280;2113;50.946;14.610;2023-04-26T05:10:33;96729.41;;;1.35;85.29
4199;BME280;2113;50.946;14.610;2023-04-26T05:13:02;96732.53;;;1.40;85.22
4199;BME280;2113;50.946;14.610;2023-04-26T05:15:31;96736.66;;;1.43;85.13
4199;BME280;2113;50.946;14.610;2023-04-26T05:17:59;96740.34;;;1.39;85.21
4199;BME280;2113;50.946;14.610;2023-04-26T05:20:28;96738.88;;;1.35;84.28
4199;BME280;2113;50.946;14.610;2023-04-26T05:22:58;96744.88;;;1.50;84.27
4199;BME280;2113;50.946;14.610;2023-04-26T05:25:27;96746.41;;;1.38;84.15
4199;BME280;2113;50.946;14.610;2023-04-26T05:28:03;96747.22;;;1.38;84.58
4199;BME280;2113;50.946;14.610;2023-04-26T05:30:46;96753.28;;;1.37;83.69
4199;BME280;2113;50.946;14.610;2023-04-26T05:33:28;96755.59;;;1.42;83.45
4199;BME280;2113;50.946;14.610;2023-04-26T05:36:18;96755.25;;;1.48;83.61
4199;BME280;2113;50.946;14.610;2023-04-26T05:38:48;96757.34;;;1.56;83.47
4199;BME280;2113;50.946;14.610;2023-04-26T05:41:16;96752.69;;;1.62;83.33
4199;BME280;2113;50.946;14.610;2023-04-26T05:43:46;96760.75;;;1.42;82.98
4199;BME280;2113;50.946;14.610;2023-04-26T05:46:14;96761.31;;;1.47;82.79
4199;BME280;2113;50.946;14.610;2023-04-26T05:48:43;96761.94;;;1.51;82.19
4199;BME280;2113;50.946;14.610;2023-04-26T05:51:11;96763.72;;;1.50;81.64
4199;BME280;2113;50.946;14.610;2023-04-26T05:53:40;96768.56;;;1.55;81.92
4199;BME280;2113;50.946;14.610;2023-04-26T05:56:09;96761.84;;;1.81;82.67
4199;BME280;2113;50.946;14.610;2023-04-26T05:58:38;96769.13;;;1.88;80.38
4199;BME280;2113;50.946;14.610;2023-04-26T06:01:06;96760.81;;;1.97;81.80
4199;BME280;2113;50.946;14.610;2023-04-26T06:03:35;96767.38;;;1.89;80.13
4199;BME280;2113;50.946;14.610;2023-04-26T06:06:04;96768.28;;;1.88;79.95
4199;BME280;2113;50.946;14.610;2023-04-26T06:08:33;96758.63;;;1.91;80.37
4199;BME280;2113;50.946;14.610;2023-04-26T06:11:01;96772.13;;;1.95;79.46
4199;BME280;2113;50.946;14.610;2023-04-26T06:13:31;96763.09;;;2.16;80.13
4199;BME280;2113;50.946;14.610;2023-04-26T06:15:59;96762.59;;;2.24;77.68
4199;BME280;2113;50.946;14.610;2023-04-26T06:18:27;96764.91;;;2.28;76.27
4199;BME280;2113;50.946;14.610;2023-04-26T06:20:55;96778.59;;;2.43;77.23
4199;BME280;2113;50.946;14.610;2023-04-26T06:23:24;96780.34;;;2.42;75.69
4199;BME280;2113;50.946;14.610;2023-04-26T06:25:52;96773.75;;;2.24;76.44
4199;BME280;2113;50.946;14.610;2023-04-26T06:28:21;96775.88;;;2.18;78.16
4199;BME280;2113;50.946;14.610;2023-04-26T06:30:51;96781.84;;;2.32;76.92
4199;BME280;2113;50.946;14.610;2023-04-26T06:33:19;96781.25;;;2.41;76.61
4199;BME280;2113;50.946;14.610;2023-04-26T06:35:47;96777.22;;;2.23;75.88
4199;BME280;2113;50.946;14.610;2023-04-26T06:38:15;96781.44;;;2.38;76.75
4199;BME280;2113;50.946;14.610;2023-04-26T06:40:44;96772.75;;;2.93;73.49
4199;BME280;2113;50.946;14.610;2023-04-26T06:43:12;96781.22;;;2.95;72.48
4199;BME280;2113;50.946;14.610;2023-04-26T06:45:53;96779.44;;;2.83;74.43
4199;BME280;2113;50.946;14.610;2023-04-26T06:48:21;96777.94;;;3.06;72.01
4199;BME280;2113;50.946;14.610;2023-04-26T06:50:49;96788.50;;;3.28;69.55
4199;BME280;2113;50.946;14.610;2023-04-26T06:53:17;96778.66;;;2.95;70.49
4199;BME280;2113;50.946;14.610;2023-04-26T06:55:48;96777.25;;;3.29;70.24
4199;BME280;2113;50.946;14.610;2023-04-26T06:58:18;96775.03;;;6.11;61.03
4199;BME280;2113;50.946;14.610;2023-04-26T07:00:47;96770.56;;;6.24;57.17
4199;BME280;2113;50.946;14.610;2023-04-26T07:03:17;96777.94;;;6.51;53.98
4199;BME280;2113;50.946;14.610;2023-04-26T07:05:45;96783.19;;;4.79;61.69
4199;BME280;2113;50.946;14.610;2023-04-26T07:08:14;96772.28;;;4.39;66.10
4199;BME280;2113;50.946;14.610;2023-04-26T07:10:42;96767.38;;;6.20;59.43
4199;BME280;2113;50.946;14.610;2023-04-26T07:13:10;96776.25;;;4.55;63.69
4199;BME280;2113;50.946;14.610;2023-04-26T07:15:38;96777.03;;;4.69;63.83
4199;BME280;2113;50.946;14.610;2023-04-26T07:18:08;96772.28;;;5.79;61.16
4199;BME280;2113;50.946;14.610;2023-04-26T07:20:37;96768.53;;;6.38;57.97
4199;BME280;2113;50.946;14.610;2023-04-26T07:23:06;96773.50;;;5.28;60.92
4199;BME280;2113;50.946;14.610;2023-04-26T07:25:34;96785.72;;;3.69;63.26
4199;BME280;2113;50.946;14.610;2023-04-26T07:28:02;96789.34;;;4.05;64.71
4199;BME280;2113;50.946;14.610;2023-04-26T07:30:30;96770.50;;;7.63;54.57
4199;BME280;2113;50.946;14.610;2023-04-26T07:32:59;96767.25;;;9.29;47.28
4199;BME280;2113;50.946;14.610;2023-04-26T07:35:28;96772.56;;;8.70;47.57
4199;BME280;2113;50.946;14.610;2023-04-26T07:37:58;96776.38;;;10.09;45.76
4199;BME280;2113;50.946;14.610;2023-04-26T07:40:26;96774.75;;;8.94;47.88
4199;BME280;2113;50.946;14.610;2023-04-26T07:42:55;96778.50;;;7.50;51.54
4199;BME280;2113;50.946;14.610;2023-04-26T07:45:24;96774.06;;;9.30;46.42
4199;BME280;2113;50.946;14.610;2023-04-26T07:47:52;96766.34;;;10.23;44.26
4199;BME280;2113;50.946;14.610;2023-04-26T07:50:21;96767.03;;;11.42;43.47
4199;BME280;2113;50.946;14.610;2023-04-26T07:52:49;96775.53;;;8.15;47.05
4199;BME280;2113;50.946;14.610;2023-04-26T07:55:19;96774.94;;;7.30;49.30
4199;BME280;2113;50.946;14.610;2023-04-26T07:57:47;96790.47;;;4.74;57.49
4199;BME280;2113;50.946;14.610;2023-04-26T08:00:17;96795.66;;;3.88;63.26
4199;BME280;2113;50.946;14.610;2023-04-26T08:02:45;96793.22;;;4.10;61.92
4199;BME280;2113;50.946;14.610;2023-04-26T08:05:14;96787.41;;;6.72;51.82
4199;BME280;2113;50.946;14.610;2023-04-26T08:07:43;96778.44;;;10.05;47.61
4199;BME280;2113;50.946;14.610;2023-04-26T08:10:11;96769.38;;;9.62;45.85
4199;BME280;2113;50.946;14.610;2023-04-26T08:12:41;96770.75;;;10.68;45.03
4199;BME280;2113;50.946;14.610;2023-04-26T08:15:11;96792.19;;;9.32;47.54
4199;BME280;2113;50.946;14.610;2023-04-26T08:17:39;96788.81;;;6.11;54.63
4199;BME280;2113;50.946;14.610;2023-04-26T08:20:09;96796.94;;;4.79;60.33
4199;BME280;2113;50.946;14.610;2023-04-26T08:22:37;96797.81;;;4.43;59.77
4199;BME280;2113;50.946;14.610;2023-04-26T08:25:07;96805.44;;;4.21;62.56
4199;BME280;2113;50.946;14.610;2023-04-26T08:27:35;96814.84;;;3.97;62.49
4199;BME280;2113;50.946;14.610;2023-04-26T08:30:07;96809.69;;;3.97;64.80
4199;BME280;2113;50.946;14.610;2023-04-26T08:32:35;96797.75;;;6.52;58.43
4199;BME280;2113;50.946;14.610;2023-04-26T08:35:05;96803.06;;;7.67;52.37
4199;BME280;2113;50.946;14.610;2023-04-26T08:37:33;96793.69;;;6.59;55.41
4199;BME280;2113;50.946;14.610;2023-04-26T08:40:01;96800.38;;;5.04;59.23
4199;BME280;2113;50.946;14.610;2023-04-26T08:42:30;96810.91;;;4.16;63.73
4199;BME280;2113;50.946;14.610;2023-04-26T08:45:00;96810.84;;;3.80;65.23
4199;BME280;2113;50.946;14.610;2023-04-26T08:47:38;96806.94;;;6.33;59.82
4199;BME280;2113;50.946;14.610;2023-04-26T08:50:10;96800.97;;;9.02;49.37
4199;BME280;2113;50.946;14.610;2023-04-26T08:52:41;96790.88;;;9.84;47.02
4199;BME280;2113;50.946;14.610;2023-04-26T08:55:10;96795.47;;;9.24;44.89
4199;BME280;2113;50.946;14.610;2023-04-26T08:57:41;96799.28;;;9.58;43.77
4199;BME280;2113;50.946;14.610;2023-04-26T09:00:11;96804.31;;;6.67;48.30
4199;BME280;2113;50.946;14.610;2023-04-26T09:02:45;96804.16;;;8.46;49.57
4199;BME280;2113;50.946;14.610;2023-04-26T09:05:14;96813.53;;;6.49;53.52
4199;BME280;2113;50.946;14.610;2023-04-26T09:07:44;96819.63;;;5.23;54.52
4199;BME280;2113;50.946;14.610;2023-04-26T09:10:16;96817.88;;;4.76;58.65
4199;BME280;2113;50.946;14.610;2023-04-26T09:12:50;96806.69;;;6.48;56.77
4199;BME280;2113;50.946;14.610;2023-04-26T09:15:20;96798.06;;;9.34;48.78
4199;BME280;2113;50.946;14.610;2023-04-26T09:17:50;96799.81;;;8.66;47.12
4199;BME280;2113;50.946;14.610;2023-04-26T09:20:23;96802.34;;;7.85;48.56
4199;BME280;2113;50.946;14.610;2023-04-26T09:22:53;96815.00;;;6.85;51.14
4199;BME280;2113;50.946;14.610;2023-04-26T09:25:27;96812.84;;;5.91;58.26
4199;BME280;2113;50.946;14.610;2023-04-26T09:27:56;96823.25;;;5.21;56.81
4199;BME280;2113;50.946;14.610;2023-04-26T09:30:25;96829.88;;;4.41;60.64
4199;BME280;2113;50.946;14.610;2023-04-26T09:32:56;96821.50;;;4.50;63.03
4199;BME280;2113;50.946;14.610;2023-04-26T09:35:28;96818.97;;;5.09;62.52
4199;BME280;2113;50.946;14.610;2023-04-26T09:37:58;96821.00;;;6.09;57.12
4199;BME280;2113;50.946;14.610;2023-04-26T09:40:39;96807.69;;;6.24;52.95
4199;BME280;2113;50.946;14.610;2023-04-26T09:43:09;96808.84;;;6.86;51.29
4199;BME280;2113;50.946;14.610;2023-04-26T09:45:44;96813.19;;;7.70;50.00
4199;BME280;2113;50.946;14.610;2023-04-26T09:48:16;96809.63;;;8.22;48.49
4199;BME280;2113;50.946;14.610;2023-04-26T09:50:47;96810.53;;;7.81;49.37
4199;BME280;2113;50.946;14.610;2023-04-26T09:53:27;96813.78;;;7.73;46.06
4199;BME280;2113;50.946;14.610;2023-04-26T09:56:04;96810.59;;;8.51;46.62
4199;BME280;2113;50.946;14.610;2023-04-26T09:58:33;96815.81;;;8.61;43.47
4199;BME280;2113;50.946;14.610;2023-04-26T10:01:02;96802.13;;;8.59;47.50
4199;BME280;2113;50.946;14.610;2023-04-26T10:03:35;96799.19;;;8.43;45.68
4199;BME280;2113;50.946;14.610;2023-04-26T10:06:04;96786.53;;;8.78;47.23
4199;BME280;2113;50.946;14.610;2023-04-26T10:08:33;96789.31;;;9.06;47.53
4199;BME280;2113;50.946;14.610;2023-04-26T10:11:03;96799.59;;;8.98;43.96
4199;BME280;2113;50.946;14.610;2023-04-26T10:13:33;96782.34;;;10.65;45.38
4199;BME280;2113;50.946;14.610;2023-04-26T10:16:02;96793.78;;;8.65;46.33
4199;BME280;2113;50.946;14.610;2023-04-26T10:18:34;96800.53;;;7.03;47.33
4199;BME280;2113;50.946;14.610;2023-04-26T10:21:06;96807.72;;;5.78;56.18
4199;BME280;2113;50.946;14.610;2023-04-26T10:23:36;96820.25;;;5.03;56.37
4199;BME280;2113;50.946;14.610;2023-04-26T10:26:05;96821.56;;;4.61;59.33
4199;BME280;2113;50.946;14.610;2023-04-26T10:28:54;96816.75;;;4.44;62.14
4199;BME280;2113;50.946;14.610;2023-04-26T10:34:33;96814.56;;;4.98;56.64
4199;BME280;2113;50.946;14.610;2023-04-26T10:37:06;96809.25;;;5.69;55.82
4199;BME280;2113;50.946;14.610;2023-04-26T10:39:35;96806.00;;;8.34;54.52
4199;BME280;2113;50.946;14.610;2023-04-26T10:42:23;96808.28;;;8.58;45.64
4199;BME280;2113;50.946;14.610;2023-04-26T10:44:53;96801.75;;;8.03;49.42
4199;BME280;2113;50.946;14.610;2023-04-26T10:47:26;96805.50;;;7.27;47.71
4199;BME280;2113;50.946;14.610;2023-04-26T10:50:05;96805.19;;;6.23;49.17
4199;BME280;2113;50.946;14.610;2023-04-26T10:52:36;96805.94;;;5.21;54.45
4199;BME280;2113;50.946;14.610;2023-04-26T10:55:05;96815.44;;;5.10;56.05
4199;BME280;2113;50.946;14.610;2023-04-26T10:57:51;96817.81;;;5.13;52.19
4199;BME280;2113;50.946;14.610;2023-04-26T11:00:28;96809.78;;;5.40;54.34
4199;BME280;2113;50.946;14.610;2023-04-26T11:03:02;96807.84;;;5.77;52.46
4199;BME280;2113;50.946;14.610;2023-04-26T11:05:37;96801.03;;;7.49;51.37
4199;BME280;2113;50.946;14.610;2023-04-26T11:08:14;96799.66;;;8.27;45.20
4199;BME280;2113;50.946;14.610;2023-04-26T11:10:48;96800.81;;;8.94;44.83
4199;BME280;2113;50.946;14.610;2023-04-26T11:13:17;96801.69;;;8.24;45.69
4199;BME280;2113;50.946;14.610;2023-04-26T11:15:46;96806.91;;;8.24;41.34
4199;BME280;2113;50.946;14.610;2023-04-26T11:18:19;96805.41;;;6.96;44.25
4199;BME280;2113;50.946;14.610;2023-04-26T11:20:49;96806.81;;;7.74;47.80
4199;BME280;2113;50.946;14.610;2023-04-26T11:23:18;96800.44;;;7.88;45.03
4199;BME280;2113;50.946;14.610;2023-04-26T11:25:47;96801.63;;;8.35;45.98
4199;BME280;2113;50.946;14.610;2023-04-26T11:28:18;96798.13;;;8.55;42.29
4199;BME280;2113;50.946;14.610;2023-04-26T11:30:48;96785.81;;;9.73;42.24
4199;BME280;2113;50.946;14.610;2023-04-26T11:33:17;96788.63;;;9.42;43.53
4199;BME280;2113;50.946;14.610;2023-04-26T11:35:47;96797.78;;;8.08;45.33
4199;BME280;2113;50.946;14.610;2023-04-26T11:38:17;96797.69;;;7.38;44.89
4199;BME280;2113;50.946;14.610;2023-04-26T11:40:52;96807.66;;;6.35;52.43
4199;BME280;2113;50.946;14.610;2023-04-26T11:43:20;96800.38;;;5.96;50.39
4199;BME280;2113;50.946;14.610;2023-04-26T11:45:49;96810.97;;;6.04;50.56
4199;BME280;2113;50.946;14.610;2023-04-26T11:48:17;96824.28;;;6.11;47.88
4199;BME280;2113;50.946;14.610;2023-04-26T11:50:46;96815.19;;;6.50;48.87
4199;BME280;2113;50.946;14.610;2023-04-26T11:53:14;96822.63;;;6.43;49.48
4199;BME280;2113;50.946;14.610;2023-04-26T11:55:44;96811.03;;;6.69;49.97
4199;BME280;2113;50.946;14.610;2023-04-26T11:58:13;96816.53;;;7.19;48.22
4199;BME280;2113;50.946;14.610;2023-04-26T12:00:55;96823.50;;;7.39;46.52
4199;BME280;2113;50.946;14.610;2023-04-26T12:03:28;96826.22;;;7.17;49.73
4199;BME280;2113;50.946;14.610;2023-04-26T12:05:57;96821.00;;;6.85;46.21
4199;BME280;2113;50.946;14.610;2023-04-26T12:08:26;96826.16;;;6.53;48.64
4199;BME280;2113;50.946;14.610;2023-04-26T12:11:00;96829.13;;;6.37;48.85
4199;BME280;2113;50.946;14.610;2023-04-26T12:13:29;96821.34;;;6.26;48.52
4199;BME280;2113;50.946;14.610;2023-04-26T12:15:58;96831.59;;;6.17;51.16
4199;BME280;2113;50.946;14.610;2023-04-26T12:18:30;96824.28;;;6.11;51.10
4199;BME280;2113;50.946;14.610;2023-04-26T12:20:59;96832.91;;;6.00;50.67
4199;BME280;2113;50.946;14.610;2023-04-26T12:23:36;96829.72;;;5.96;50.81
4199;BME280;2113;50.946;14.610;2023-04-26T12:26:07;96829.13;;;6.37;49.64
4199;BME280;2113;50.946;14.610;2023-04-26T12:28:38;96824.94;;;8.15;49.46
4199;BME280;2113;50.946;14.610;2023-04-26T12:31:07;96817.94;;;8.37;44.66
4199;BME280;2113;50.946;14.610;2023-04-26T12:33:35;96818.41;;;7.49;45.30
4199;BME280;2113;50.946;14.610;2023-04-26T12:36:07;96823.09;;;7.02;43.29
4199;BME280;2113;50.946;14.610;2023-04-26T12:38:37;96822.13;;;7.35;44.92
4199;BME280;2113;50.946;14.610;2023-04-26T12:41:07;96826.06;;;7.71;43.85
4199;BME280;2113;50.946;14.610;2023-04-26T12:43:35;96816.53;;;7.40;45.85
4199;BME280;2113;50.946;14.610;2023-04-26T12:46:04;96825.31;;;7.07;46.54
4199;BME280;2113;50.946;14.610;2023-04-26T12:48:32;96827.84;;;6.86;47.26
4199;BME280;2113;50.946;14.610;2023-04-26T12:51:02;96823.75;;;6.72;48.35
4199;BME280;2113;50.946;14.610;2023-04-26T12:53:30;96818.44;;;7.17;51.39
4199;BME280;2113;50.946;14.610;2023-04-26T12:55:59;96822.13;;;7.56;48.95
4199;BME280;2113;50.946;14.610;2023-04-26T12:58:29;96818.00;;;7.95;45.73
4199;BME280;2113;50.946;14.610;2023-04-26T13:00:57;96805.09;;;9.23;47.64
4199;BME280;2113;50.946;14.610;2023-04-26T13:03:25;96802.16;;;8.69;45.57
4199;BME280;2113;50.946;14.610;2023-04-26T13:05:55;96826.13;;;7.39;46.18
4199;BME280;2113;50.946;14.610;2023-04-26T13:08:23;96822.13;;;6.60;44.77
4199;BME280;2113;50.946;14.610;2023-04-26T13:10:51;96825.34;;;6.53;48.67
4199;BME280;2113;50.946;14.610;2023-04-26T13:13:19;96830.19;;;6.35;49.28
4199;BME280;2113;50.946;14.610;2023-04-26T13:16:07;96828.03;;;6.29;51.33
4199;BME280;2113;50.946;14.610;2023-04-26T13:18:36;96832.16;;;6.42;50.91
4199;BME280;2113;50.946;14.610;2023-04-26T13:21:05;96833.78;;;7.20;48.70
4199;BME280;2113;50.946;14.610;2023-04-26T13:23:33;96832.91;;;8.24;45.49
4199;BME280;2113;50.946;14.610;2023-04-26T13:26:02;96824.63;;;8.70;43.57
4199;BME280;2113;50.946;14.610;2023-04-26T13:28:30;96812.19;;;9.31;45.88
4199;BME280;2113;50.946;14.610;2023-04-26T13:30:58;96807.69;;;9.33;42.78
4199;BME280;2113;50.946;14.610;2023-04-26T13:33:28;96805.47;;;9.19;43.58
4199;BME280;2113;50.946;14.610;2023-04-26T13:35:57;96810.47;;;8.53;42.84
4199;BME280;2113;50.946;14.610;2023-04-26T13:38:25;96821.75;;;7.81;43.26